Rattan, Louisiana
Current Conditions -  °F | °C
As of 8:05 PM on Friday 24 Oct 2014 (Local Time) from KAQV Reporting Station
Haze Haze  
Wind Chill: 58°   Ceiling: Unl
Heat Index: 58°   Visibility: 3mi
Dew Point: 55°   Wind: 0mph
Humidity: 90%   Direction: NA
Pressure: 30.11"   Gusts: NA
Location:  31.6044°N, 93.4433°W
Report Text: KAQV 250105Z AUTO 00000KT 3SM BR CLR 14/13 A3011 RMK AO2 T01440128
Loading
Personal Weather Stations






























Interactive Weather Map
Tropical Storm Tracking
New forecast layout! Learn more

10-Day Weather Forecast

Advertisements
Track Severe Weather on mobile